createdAt,value
2023-04-28T00:01:46.029Z,99437.91
2023-04-28T00:04:13.596Z,99438.61
2023-04-28T00:08:13.257Z,99440.63
2023-04-28T00:10:40.469Z,99442.31
2023-04-28T00:13:07.632Z,99442.04
2023-04-28T00:15:34.809Z,99445.77
2023-04-28T00:18:01.917Z,99445.39
2023-04-28T00:20:28.951Z,99446.59
2023-04-28T00:22:56.010Z,99452.16
2023-04-28T00:25:23.367Z,99455.63
2023-04-28T00:27:50.474Z,99455.80
2023-04-28T00:30:17.880Z,99456.81
2023-04-28T00:32:45.015Z,99458.77
2023-04-28T00:35:12.280Z,99460.42
2023-04-28T00:37:39.621Z,99465.40
2023-04-28T00:40:07.801Z,99472.05
2023-04-28T00:42:35.098Z,99470.06
2023-04-28T00:45:06.158Z,99479.59
2023-04-28T00:47:34.729Z,99485.18
2023-04-28T00:50:02.400Z,99492.77
2023-04-28T00:52:29.976Z,99492.11
2023-04-28T00:54:57.126Z,99489.46
2023-04-28T00:57:24.155Z,99493.82
2023-04-28T00:59:51.282Z,99495.01
2023-04-28T01:02:20.515Z,99494.47
2023-04-28T01:04:48.507Z,99493.89
2023-04-28T01:07:15.784Z,99493.16
2023-04-28T01:09:44.239Z,99495.04
2023-04-28T01:12:12.392Z,99496.05
2023-04-28T01:14:44.432Z,99498.83
2023-04-28T01:17:11.867Z,99499.35
2023-04-28T01:19:39.023Z,99499.65
2023-04-28T01:22:06.792Z,99500.63
2023-04-28T01:24:34.043Z,99497.51
2023-04-28T01:27:03.824Z,99496.05
2023-04-28T01:29:31.283Z,99496.18
2023-04-28T01:31:58.529Z,99497.81
2023-04-28T01:34:25.672Z,99503.34
2023-04-28T01:36:52.900Z,99504.52
2023-04-28T01:39:19.929Z,99506.71
2023-04-28T01:41:47.202Z,99509.16
2023-04-28T01:44:14.638Z,99508.52
2023-04-28T01:46:42.039Z,99509.06
2023-04-28T01:49:09.139Z,99505.64
2023-04-28T01:51:36.179Z,99506.40
2023-04-28T01:54:03.452Z,99500.77
2023-04-28T01:56:30.579Z,99504.08
2023-04-28T01:58:58.129Z,99502.86
2023-04-28T02:01:25.638Z,99502.53
2023-04-28T02:03:53.150Z,99502.06
2023-04-28T02:06:20.747Z,99503.21
2023-04-28T02:08:47.769Z,99504.86
2023-04-28T02:11:14.821Z,99504.70
2023-04-28T02:13:41.923Z,99502.13
2023-04-28T02:16:09.937Z,99502.79
2023-04-28T02:18:37.865Z,99505.41
2023-04-28T02:21:12.070Z,99509.27
2023-04-28T02:23:39.856Z,99510.89
2023-04-28T02:26:06.948Z,99509.22
2023-04-28T02:28:34.138Z,99508.39
2023-04-28T02:31:09.014Z,99505.54
2023-04-28T02:33:36.674Z,99509.40
2023-04-28T02:36:04.528Z,99512.70
2023-04-28T02:38:31.694Z,99514.67
2023-04-28T02:41:00.319Z,99513.30
2023-04-28T02:43:31.430Z,99516.48
2023-04-28T02:45:58.401Z,99516.90
2023-04-28T02:48:26.215Z,99520.65
2023-04-28T02:50:53.478Z,99522.84
2023-04-28T02:53:21.089Z,99528.44
2023-04-28T02:55:48.752Z,99532.29
2023-04-28T02:58:16.338Z,99535.64
2023-04-28T03:00:43.412Z,99538.51
2023-04-28T03:03:10.968Z,99543.52
2023-04-28T03:05:38.228Z,99545.50
2023-04-28T03:08:06.395Z,99549.02
2023-04-28T03:10:33.660Z,99550.30
2023-04-28T03:13:01.151Z,99554.48
2023-04-28T03:15:29.170Z,99553.77
2023-04-28T03:17:56.474Z,99560.52
2023-04-28T03:20:24.549Z,99559.27
2023-04-28T03:22:51.875Z,99566.42
2023-04-28T03:25:19.029Z,99575.03
2023-04-28T03:27:51.108Z,99579.39
2023-04-28T03:30:18.301Z,99580.59
2023-04-28T03:32:46.567Z,99585.52
2023-04-28T03:35:13.967Z,99585.92
2023-04-28T03:37:41.463Z,99591.34
2023-04-28T03:40:09.467Z,99587.52
2023-04-28T03:43:15.444Z,99590.21
2023-04-28T03:46:08.951Z,99588.66
2023-04-28T03:48:36.294Z,99587.98
2023-04-28T03:51:03.660Z,99589.42
2023-04-28T03:53:32.023Z,99587.27
2023-04-28T03:55:59.363Z,99595.41
2023-04-28T03:58:26.562Z,99593.84
2023-04-28T04:00:54.400Z,99597.54
2023-04-28T04:03:23.236Z,99600.89
2023-04-28T04:05:50.881Z,99602.21
2023-04-28T04:08:18.440Z,99605.33
2023-04-28T04:10:45.573Z,99605.88
2023-04-28T04:13:12.934Z,99604.67
2023-04-28T04:15:41.349Z,99607.88
2023-04-28T04:18:08.963Z,99605.38
2023-04-28T04:20:53.897Z,99604.57
2023-04-28T04:23:21.118Z,99604.24
2023-04-28T04:25:48.991Z,99609.37
2023-04-28T04:28:16.694Z,99611.27
2023-04-28T04:30:43.870Z,99610.48
2023-04-28T04:33:10.944Z,99613.89
2023-04-28T04:35:38.178Z,99612.24
2023-04-28T04:38:05.317Z,99604.76
2023-04-28T04:40:33.058Z,99610.15
2023-04-28T04:43:01.290Z,99609.34
2023-04-28T04:45:30.892Z,99610.85
2023-04-28T04:47:58.364Z,99613.10
2023-04-28T04:50:25.759Z,99614.04
2023-04-28T04:52:56.777Z,99607.23
2023-04-28T04:55:23.981Z,99615.39
2023-04-28T04:57:52.589Z,99616.98
2023-04-28T05:00:25.763Z,99614.08
2023-04-28T05:02:53.359Z,99619.43
2023-04-28T05:05:22.868Z,99619.54
2023-04-28T05:08:04.443Z,99621.96
2023-04-28T05:10:31.935Z,99627.67
2023-04-28T05:12:59.090Z,99625.41
2023-04-28T05:15:26.830Z,99623.14
2023-04-28T05:18:14.404Z,99620.16
2023-04-28T05:20:41.649Z,99622.92
2023-04-28T05:23:09.646Z,99621.27
2023-04-28T05:25:37.044Z,99619.17
2023-04-28T05:28:07.764Z,99624.53
2023-04-28T05:30:34.999Z,99630.09
2023-04-28T05:33:02.357Z,99632.63
2023-04-28T05:35:31.345Z,99637.05
2023-04-28T05:37:59.553Z,99634.88
2023-04-28T05:40:28.248Z,99632.88
2023-04-28T05:42:56.438Z,99633.88
2023-04-28T05:45:23.537Z,99631.62
2023-04-28T05:47:51.034Z,99635.83
2023-04-28T05:50:18.325Z,99636.15
2023-04-28T05:52:45.468Z,99633.89
2023-04-28T05:55:12.698Z,99632.90
2023-04-28T05:57:49.817Z,99633.65
2023-04-28T06:00:21.522Z,99631.08
2023-04-28T06:02:49.961Z,99632.18
2023-04-28T06:05:17.870Z,99629.77
2023-04-28T06:07:48.216Z,99626.27
2023-04-28T06:10:17.059Z,99625.81
2023-04-28T06:12:44.157Z,99618.91
2023-04-28T06:15:11.820Z,99626.31
2023-04-28T06:17:39.102Z,99627.08
2023-04-28T06:20:07.789Z,99626.78
2023-04-28T06:22:34.778Z,99626.00
2023-04-28T06:25:01.824Z,99627.89
2023-04-28T06:27:34.759Z,99630.65
2023-04-28T06:30:01.861Z,99633.56
2023-04-28T06:32:29.229Z,99630.30
2023-04-28T06:34:58.374Z,99627.50
2023-04-28T06:37:26.267Z,99630.16
2023-04-28T06:39:53.493Z,99632.28
2023-04-28T06:42:20.770Z,99632.45
2023-04-28T06:44:59.541Z,99639.60
2023-04-28T06:47:28.033Z,99638.77
2023-04-28T06:49:55.473Z,99636.77
2023-04-28T06:52:27.116Z,99641.25
2023-04-28T06:54:59.992Z,99638.40
2023-04-28T06:57:27.011Z,99634.07
2023-04-28T06:59:55.025Z,99639.56
2023-04-28T07:02:22.358Z,99640.66
2023-04-28T07:04:49.958Z,99645.42
2023-04-28T07:07:17.001Z,99646.72
2023-04-28T07:09:44.949Z,99638.27
2023-04-28T07:12:12.206Z,99638.30
2023-04-28T07:14:39.508Z,99640.85
2023-04-28T07:17:06.704Z,99634.94
2023-04-28T07:19:33.951Z,99644.61
2023-04-28T07:22:00.992Z,99645.80
2023-04-28T07:24:28.591Z,99649.14
2023-04-28T07:26:56.001Z,99642.60
2023-04-28T07:29:23.725Z,99647.58
2023-04-28T07:31:50.907Z,99650.86
2023-04-28T07:34:18.387Z,99647.80
2023-04-28T07:36:46.013Z,99653.39
2023-04-28T07:39:13.140Z,99653.55
2023-04-28T07:41:40.704Z,99654.63
2023-04-28T07:44:08.488Z,99654.73
2023-04-28T07:46:35.630Z,99661.33
2023-04-28T07:49:03.332Z,99660.23
2023-04-28T07:51:31.866Z,99659.39
2023-04-28T07:53:59.059Z,99657.96
2023-04-28T07:56:26.760Z,99652.29
2023-04-28T07:58:53.768Z,99664.80
2023-04-28T08:01:20.751Z,99663.23
2023-04-28T08:03:48.163Z,99663.36
2023-04-28T08:06:15.758Z,99665.20
2023-04-28T08:08:43.073Z,99665.34
2023-04-28T08:11:10.174Z,99665.27
2023-04-28T08:13:37.256Z,99658.57
2023-04-28T08:16:04.756Z,99659.20
2023-04-28T08:18:32.138Z,99662.48
2023-04-28T08:20:59.212Z,99659.19
2023-04-28T08:23:28.531Z,99662.80
2023-04-28T08:25:55.584Z,99657.77
2023-04-28T08:28:22.709Z,99653.93
2023-04-28T08:30:49.924Z,99660.08
2023-04-28T08:33:17.235Z,99660.77
2023-04-28T08:35:44.356Z,99664.27
2023-04-28T08:38:14.290Z,99659.42
2023-04-28T08:40:43.134Z,99660.47
2023-04-28T08:43:15.138Z,99652.29
2023-04-28T08:45:43.219Z,99658.65
2023-04-28T08:48:20.796Z,99652.71
2023-04-28T08:50:55.011Z,99652.59
2023-04-28T08:53:26.748Z,99655.34
2023-04-28T08:55:57.057Z,99657.23
2023-04-28T08:58:25.154Z,99654.46
2023-04-28T09:00:53.878Z,99657.94
2023-04-28T09:03:21.811Z,99653.78
2023-04-28T09:05:49.417Z,99655.05
2023-04-28T09:08:16.560Z,99648.35
2023-04-28T09:10:43.903Z,99649.64
2023-04-28T09:13:10.961Z,99655.70
2023-04-28T09:15:41.467Z,99659.65
2023-04-28T09:18:08.759Z,99666.78
2023-04-28T09:20:36.428Z,99662.55
2023-04-28T09:23:17.688Z,99656.52
2023-04-28T09:26:00.736Z,99656.06
2023-04-28T09:28:28.540Z,99654.64
2023-04-28T09:30:55.623Z,99644.17
2023-04-28T09:33:22.863Z,99638.52
2023-04-28T09:35:50.278Z,99648.30
2023-04-28T09:38:17.625Z,99646.40
2023-04-28T09:40:54.817Z,99645.71
2023-04-28T09:43:33.031Z,99646.39
2023-04-28T09:46:04.700Z,99642.52
2023-04-28T09:48:36.463Z,99638.83
2023-04-28T09:51:08.122Z,99639.34
2023-04-28T09:53:35.876Z,99633.88
2023-04-28T09:56:03.786Z,99638.77
2023-04-28T09:58:30.927Z,99636.94
2023-04-28T10:00:59.162Z,99641.91
2023-04-28T10:03:29.591Z,99637.58
2023-04-28T10:05:58.648Z,99641.28
2023-04-28T10:08:27.573Z,99629.75
2023-04-28T10:10:54.930Z,99636.94
2023-04-28T10:13:22.952Z,99640.80
2023-04-28T10:15:50.562Z,99636.83
2023-04-28T10:18:17.563Z,99637.02
2023-04-28T10:20:46.303Z,99640.38
2023-04-28T10:23:38.518Z,99644.56
2023-04-28T10:26:10.564Z,99638.72
2023-04-28T10:28:37.743Z,99638.61
2023-04-28T10:31:35.197Z,99639.02
2023-04-28T10:34:22.217Z,99646.52
2023-04-28T10:36:54.827Z,99645.88
2023-04-28T10:39:21.988Z,99639.79
2023-04-28T10:41:49.458Z,99636.63
2023-04-28T10:44:29.291Z,99635.84
2023-04-28T10:47:04.012Z,99636.30
2023-04-28T10:49:59.273Z,99634.46
2023-04-28T10:52:41.497Z,99628.27
2023-04-28T10:55:36.637Z,99635.23
2023-04-28T10:58:17.681Z,99631.52
2023-04-28T11:00:48.445Z,99633.84
2023-04-28T11:03:51.402Z,99631.17
2023-04-28T11:06:35.795Z,99633.63
2023-04-28T11:09:15.628Z,99630.70
2023-04-28T11:11:56.345Z,99631.55
2023-04-28T11:14:23.496Z,99628.66
2023-04-28T11:16:56.595Z,99631.79
2023-04-28T11:19:31.026Z,99622.84
2023-04-28T11:21:59.385Z,99618.33
2023-04-28T11:24:27.524Z,99620.67
2023-04-28T11:26:54.793Z,99620.59
2023-04-28T11:29:33.617Z,99622.67
2023-04-28T11:32:01.086Z,99616.36
2023-04-28T11:34:28.936Z,99612.41
2023-04-28T11:36:56.155Z,99613.27
2023-04-28T11:39:30.425Z,99608.12
2023-04-28T11:42:02.554Z,99609.68
2023-04-28T11:44:30.856Z,99610.30
2023-04-28T11:47:02.613Z,99614.88
2023-04-28T11:49:31.563Z,99617.33
2023-04-28T11:52:00.561Z,99610.35
2023-04-28T11:54:28.604Z,99604.92
2023-04-28T11:56:57.685Z,99605.77
2023-04-28T11:59:31.498Z,99604.59
2023-04-28T12:01:59.822Z,99601.51
2023-04-28T12:04:38.079Z,99605.83
2023-04-28T12:07:16.433Z,99599.70
2023-04-28T12:09:45.971Z,99594.35
2023-04-28T12:12:40.122Z,99593.27
2023-04-28T12:15:16.413Z,99597.32
2023-04-28T12:17:45.729Z,99588.69
2023-04-28T12:20:33.424Z,99598.89
2023-04-28T12:24:22.686Z,99603.04
2023-04-28T12:26:49.834Z,99593.53
2023-04-28T12:29:37.438Z,99592.46
2023-04-28T12:32:05.828Z,99592.95
2023-04-28T12:34:33.659Z,99591.47
2023-04-28T12:37:01.815Z,99588.70
2023-04-28T12:39:29.215Z,99596.86
2023-04-28T12:41:56.314Z,99601.67
2023-04-28T12:44:23.628Z,99606.80
2023-04-28T12:46:51.786Z,99612.75
2023-04-28T12:49:18.996Z,99600.52
2023-04-28T12:51:46.283Z,99606.48
2023-04-28T12:54:14.639Z,99605.19
2023-04-28T12:56:41.693Z,99607.98
2023-04-28T12:59:08.777Z,99604.41
2023-04-28T13:01:35.929Z,99596.55
2023-04-28T13:04:03.258Z,99605.84
2023-04-28T13:06:31.118Z,99605.05
2023-04-28T13:08:58.451Z,99603.37
2023-04-28T13:11:27.369Z,99606.16
2023-04-28T13:13:54.605Z,99595.21
2023-04-28T13:16:22.355Z,99589.50
2023-04-28T13:18:49.629Z,99596.27
2023-04-28T13:21:17.528Z,99601.19
2023-04-28T13:23:44.610Z,99594.28
2023-04-28T13:26:11.766Z,99603.16
2023-04-28T13:28:39.179Z,99602.80
2023-04-28T13:31:06.632Z,99606.08
2023-04-28T13:33:33.735Z,99606.83
2023-04-28T13:36:00.862Z,99600.28
2023-04-28T13:38:28.197Z,99591.19
2023-04-28T13:40:55.622Z,99581.70
2023-04-28T13:43:23.415Z,99574.36
2023-04-28T13:45:50.834Z,99560.65
2023-04-28T13:48:18.997Z,99563.86
2023-04-28T13:50:46.523Z,99569.33
2023-04-28T13:53:13.905Z,99570.19
2023-04-28T13:55:41.116Z,99580.40
2023-04-28T13:58:08.203Z,99573.17
2023-04-28T14:00:35.200Z,99573.59
2023-04-28T14:03:02.694Z,99586.30
2023-04-28T14:05:36.097Z,99591.39
2023-04-28T14:08:10.427Z,99591.27
2023-04-28T14:10:37.485Z,99582.95
2023-04-28T14:13:04.501Z,99583.70
2023-04-28T14:15:32.767Z,99585.77
2023-04-28T14:17:59.905Z,99583.55
2023-04-28T14:20:28.115Z,99580.51
2023-04-28T14:22:55.440Z,99581.02
2023-04-28T14:25:22.492Z,99581.02
2023-04-28T14:27:50.157Z,99580.71
2023-04-28T14:30:17.591Z,99585.81
2023-04-28T14:32:44.716Z,99579.73
2023-04-28T14:35:12.663Z,99580.78
2023-04-28T14:37:39.895Z,99580.96
2023-04-28T14:40:07.830Z,99584.67
2023-04-28T14:42:36.384Z,99586.87
2023-04-28T14:45:07.556Z,99588.41
2023-04-28T14:47:35.112Z,99576.55
2023-04-28T14:50:02.245Z,99573.40
2023-04-28T14:52:30.731Z,99573.71
2023-04-28T14:54:58.040Z,99574.27
2023-04-28T14:57:25.861Z,99575.39
2023-04-28T14:59:53.086Z,99582.80
2023-04-28T15:02:21.823Z,99586.22
2023-04-28T15:04:49.190Z,99586.52
2023-04-28T15:07:16.642Z,99584.04
2023-04-28T15:09:44.103Z,99585.70
2023-04-28T15:12:11.156Z,99573.45
2023-04-28T15:14:38.353Z,99575.35
2023-04-28T15:17:05.583Z,99567.83
2023-04-28T15:19:32.646Z,99565.77
2023-04-28T15:22:00.008Z,99575.38
2023-04-28T15:24:27.011Z,99582.52
2023-04-28T15:26:54.576Z,99584.66
2023-04-28T15:29:22.799Z,99580.29
2023-04-28T15:31:50.732Z,99585.55
2023-04-28T15:34:18.207Z,99579.24
2023-04-28T15:36:45.428Z,99578.70
2023-04-28T15:39:12.725Z,99592.03
2023-04-28T15:41:40.031Z,99594.21
2023-04-28T15:44:07.647Z,99595.45
2023-04-28T15:46:34.746Z,99589.46
2023-04-28T15:49:02.420Z,99591.83
2023-04-28T15:51:29.935Z,99592.39
2023-04-28T15:53:57.319Z,99589.89
2023-04-28T15:56:24.681Z,99594.83
2023-04-28T15:58:52.703Z,99593.13
2023-04-28T16:01:19.780Z,99591.42
2023-04-28T16:03:48.248Z,99592.93
2023-04-28T16:06:15.692Z,99598.98
2023-04-28T16:08:43.192Z,99606.58
2023-04-28T16:11:17.870Z,99610.13
2023-04-28T16:13:45.371Z,99616.39
2023-04-28T16:16:14.795Z,99621.92
2023-04-28T16:18:42.100Z,99615.94
2023-04-28T16:21:09.201Z,99609.46
2023-04-28T16:23:37.280Z,99608.10
2023-04-28T16:26:04.538Z,99605.42
2023-04-28T16:28:32.326Z,99609.77
2023-04-28T16:30:59.699Z,99614.27
2023-04-28T16:33:26.890Z,99624.23
2023-04-28T16:35:55.964Z,99627.31
2023-04-28T16:38:23.058Z,99616.52
2023-04-28T16:40:50.991Z,99612.67
2023-04-28T16:43:18.623Z,99625.56
2023-04-28T16:45:45.716Z,99628.73
2023-04-28T16:48:16.256Z,99632.77
2023-04-28T16:50:43.374Z,99635.48
2023-04-28T16:53:11.044Z,99637.20
2023-04-28T16:55:38.376Z,99641.39
2023-04-28T16:58:05.918Z,99637.08
2023-04-28T17:00:32.974Z,99641.57
2023-04-28T17:03:00.295Z,99646.13
2023-04-28T17:05:27.688Z,99652.98
2023-04-28T17:07:55.283Z,99656.16
2023-04-28T17:10:22.800Z,99654.20
2023-04-28T17:12:49.902Z,99654.60
2023-04-28T17:15:19.918Z,99660.87
2023-04-28T17:17:48.779Z,99661.98
2023-04-28T17:20:18.208Z,99660.17
2023-04-28T17:22:45.244Z,99665.75
2023-04-28T17:25:12.863Z,99672.27
2023-04-28T17:27:39.979Z,99675.69
2023-04-28T17:30:10.253Z,99676.71
2023-04-28T17:32:38.243Z,99680.10
2023-04-28T17:35:06.198Z,99678.60
2023-04-28T17:37:34.102Z,99680.27
2023-04-28T17:40:01.642Z,99680.90
2023-04-28T17:42:30.338Z,99677.73
2023-04-28T17:44:57.542Z,99674.46
2023-04-28T17:47:24.676Z,99680.46
2023-04-28T17:49:52.036Z,99684.71
2023-04-28T17:52:20.060Z,99688.41
2023-04-28T17:54:47.298Z,99689.52
2023-04-28T17:57:14.691Z,99691.77
2023-04-28T17:59:42.751Z,99696.37
2023-04-28T18:02:10.738Z,99698.66
2023-04-28T18:04:38.370Z,99699.61
2023-04-28T18:07:07.495Z,99695.30
2023-04-28T18:09:34.780Z,99701.52
2023-04-28T18:12:05.460Z,99700.13
2023-04-28T18:14:32.625Z,99702.45
2023-04-28T18:16:59.767Z,99700.41
2023-04-28T18:19:28.022Z,99702.67
2023-04-28T18:21:57.135Z,99700.80
2023-04-28T18:24:24.859Z,99701.96
2023-04-28T18:26:51.958Z,99697.50
2023-04-28T18:29:20.554Z,99698.79
2023-04-28T18:31:47.773Z,99700.10
2023-04-28T18:34:15.232Z,99700.77
2023-04-28T18:36:42.355Z,99703.85
2023-04-28T18:39:10.274Z,99700.77
2023-04-28T18:41:37.990Z,99700.08
2023-04-28T18:44:05.110Z,99701.53
2023-04-28T18:46:32.924Z,99704.52
2023-04-28T18:48:59.995Z,99706.05
2023-04-28T18:51:27.242Z,99703.80
2023-04-28T18:53:54.318Z,99702.14
2023-04-28T18:56:23.830Z,99703.20
2023-04-28T18:58:51.477Z,99702.74
2023-04-28T19:01:18.784Z,99695.95
2023-04-28T19:03:46.159Z,99693.17
2023-04-28T19:06:13.958Z,99693.24
2023-04-28T19:08:42.977Z,99692.75
2023-04-28T19:11:10.736Z,99696.76
2023-04-28T19:13:38.042Z,99699.60
2023-04-28T19:16:05.634Z,99705.30
2023-04-28T19:18:33.253Z,99707.75
2023-04-28T19:21:04.394Z,99715.48
2023-04-28T19:23:32.598Z,99710.88
2023-04-28T19:26:00.211Z,99716.52
2023-04-28T19:28:28.855Z,99724.91
2023-04-28T19:30:57.228Z,99725.27
2023-04-28T19:33:27.100Z,99729.77
2023-04-28T19:35:55.471Z,99731.42
2023-04-28T19:38:23.474Z,99727.62
2023-04-28T19:40:51.139Z,99731.86
2023-04-28T19:43:18.291Z,99730.14
2023-04-28T19:45:46.834Z,99730.57
2023-04-28T19:48:14.655Z,99728.54
2023-04-28T19:50:42.321Z,99725.63
2023-04-28T19:53:09.611Z,99727.34
2023-04-28T19:55:37.105Z,99720.05
2023-04-28T19:58:06.083Z,99722.21
2023-04-28T20:00:33.243Z,99726.89
2023-04-28T20:03:00.441Z,99725.88
2023-04-28T20:05:28.985Z,99728.07
2023-04-28T20:07:56.503Z,99730.15
2023-04-28T20:10:24.491Z,99730.78
2023-04-28T20:12:51.563Z,99730.36
2023-04-28T20:15:19.742Z,99728.31
2023-04-28T20:17:47.345Z,99726.52
2023-04-28T20:20:14.569Z,99725.81
2023-04-28T20:22:42.113Z,99728.08
2023-04-28T20:25:10.884Z,99731.50
2023-04-28T20:27:37.947Z,99733.22
2023-04-28T20:30:05.923Z,99738.18
2023-04-28T20:32:33.167Z,99737.87
2023-04-28T20:35:01.810Z,99739.18
2023-04-28T20:37:30.193Z,99743.36
2023-04-28T20:39:57.264Z,99742.59
2023-04-28T20:42:25.093Z,99741.55
2023-04-28T20:44:53.015Z,99736.27
2023-04-28T20:47:20.444Z,99740.46
2023-04-28T20:49:48.333Z,99741.11
2023-04-28T20:52:15.422Z,99743.63
2023-04-28T20:54:43.839Z,99748.66
2023-04-28T20:57:11.397Z,99745.05
2023-04-28T20:59:38.611Z,99748.63
2023-04-28T21:02:05.770Z,99742.86
2023-04-28T21:04:32.957Z,99742.42
2023-04-28T21:07:00.301Z,99742.77
2023-04-28T21:09:27.377Z,99745.08
2023-04-28T21:11:55.260Z,99752.88
2023-04-28T21:14:22.496Z,99748.93
2023-04-28T21:16:49.994Z,99746.52
2023-04-28T21:19:17.545Z,99743.61
2023-04-28T21:21:44.582Z,99743.42
2023-04-28T21:24:12.701Z,99741.05
2023-04-28T21:26:39.942Z,99741.34
2023-04-28T21:29:08.293Z,99744.31
2023-04-28T21:31:35.433Z,99742.23
2023-04-28T21:34:02.429Z,99737.52
2023-04-28T21:36:30.750Z,99733.93
2023-04-28T21:38:57.858Z,99733.86
2023-04-28T21:41:25.595Z,99734.45
2023-04-28T21:43:53.113Z,99733.77
2023-04-28T21:46:20.199Z,99732.13
2023-04-28T21:48:47.563Z,99732.80
2023-04-28T21:51:15.565Z,99729.27
2023-04-28T21:53:42.788Z,99730.38
2023-04-28T21:56:09.804Z,99733.23
2023-04-28T21:58:36.826Z,99738.85
2023-04-28T22:01:05.159Z,99738.00
2023-04-28T22:03:35.192Z,99735.39
2023-04-28T22:06:02.528Z,99731.34
2023-04-28T22:08:31.008Z,99731.85
2023-04-28T22:10:58.295Z,99728.71
2023-04-28T22:13:25.677Z,99729.18
2023-04-28T22:15:52.830Z,99725.55
2023-04-28T22:18:20.485Z,99723.17
2023-04-28T22:20:47.989Z,99721.64
2023-04-28T22:23:15.301Z,99719.88
2023-04-28T22:25:42.656Z,99719.61
2023-04-28T22:28:09.802Z,99720.98
2023-04-28T22:30:36.954Z,99718.86
2023-04-28T22:33:04.036Z,99718.98
2023-04-28T22:35:31.379Z,99716.11
2023-04-28T22:37:58.518Z,99716.91
2023-04-28T22:40:25.704Z,99716.59
2023-04-28T22:42:52.751Z,99715.48
2023-04-28T22:45:19.905Z,99713.46
2023-04-28T22:47:47.121Z,99714.61
2023-04-28T22:50:14.353Z,99710.09
2023-04-28T22:52:41.653Z,99705.74
2023-04-28T22:55:08.977Z,99706.23
2023-04-28T22:57:36.635Z,99706.76
2023-04-28T23:00:04.203Z,99700.77
2023-04-28T23:02:31.425Z,99700.85
2023-04-28T23:04:59.242Z,99698.56
2023-04-28T23:07:26.272Z,99697.35
2023-04-28T23:09:53.482Z,99691.99
2023-04-28T23:12:21.327Z,99685.40
2023-04-28T23:14:48.448Z,99684.55
2023-04-28T23:17:15.539Z,99688.38
2023-04-28T23:19:42.501Z,99690.88
2023-04-28T23:22:09.552Z,99687.76
2023-04-28T23:24:37.346Z,99686.95
2023-04-28T23:27:05.143Z,99686.71
2023-04-28T23:29:32.981Z,99689.08
2023-04-28T23:31:59.968Z,99694.83
2023-04-28T23:34:27.209Z,99688.09
2023-04-28T23:36:54.299Z,99690.18
2023-04-28T23:39:21.938Z,99688.70
2023-04-28T23:41:49.093Z,99689.40
2023-04-28T23:44:16.136Z,99689.84
2023-04-28T23:46:43.582Z,99688.40
2023-04-28T23:49:10.653Z,99687.48
2023-04-28T23:51:37.737Z,99685.58
2023-04-28T23:54:04.807Z,99682.44
2023-04-28T23:56:32.109Z,99684.27
2023-04-28T23:58:59.260Z,99680.93
